createdAt,value
2022-11-04T00:02:08.707Z,6.20
2022-11-04T00:07:27.038Z,5.40
2022-11-04T00:12:27.782Z,6.70
2022-11-04T00:17:27.688Z,10.20
2022-11-04T00:22:43.347Z,4.47
2022-11-04T00:27:58.757Z,3.60
2022-11-04T00:33:15.664Z,6.17
2022-11-04T00:38:13.769Z,7.10
2022-11-04T00:43:12.149Z,4.80
2022-11-04T00:48:11.993Z,3.23
2022-11-04T00:53:10.532Z,5.20
2022-11-04T00:58:09.119Z,3.50
2022-11-04T01:03:07.374Z,6.23
2022-11-04T01:08:07.361Z,5.60
2022-11-04T01:13:05.783Z,5.00
2022-11-04T01:18:04.768Z,4.70
2022-11-04T01:23:03.044Z,3.27
2022-11-04T01:28:02.505Z,3.93
2022-11-04T01:33:00.691Z,7.60
2022-11-04T01:37:59.971Z,5.50
2022-11-04T01:42:58.158Z,4.93
2022-11-04T01:48:02.940Z,2.97
2022-11-04T01:53:07.317Z,7.43
2022-11-04T01:58:10.292Z,6.80
2022-11-04T02:03:13.560Z,4.57
2022-11-04T02:08:12.962Z,6.63
2022-11-04T02:13:11.490Z,3.83
2022-11-04T02:18:40.309Z,5.30
2022-11-04T02:24:09.890Z,5.53
2022-11-04T02:29:25.032Z,3.80
2022-11-04T02:34:33.877Z,5.70
2022-11-04T02:39:39.769Z,7.20
2022-11-04T02:44:45.054Z,5.67
2022-11-04T02:49:48.981Z,4.47
2022-11-04T02:54:51.345Z,5.93
2022-11-04T02:59:56.878Z,5.93
2022-11-04T03:04:56.412Z,6.90
2022-11-04T03:10:00.994Z,5.53
2022-11-04T03:15:05.914Z,10.43
2022-11-04T03:20:09.537Z,5.00
2022-11-04T03:25:10.246Z,11.50
2022-11-04T03:30:13.245Z,6.20
2022-11-04T03:35:13.483Z,4.03
2022-11-04T03:40:13.580Z,6.23
2022-11-04T03:45:13.914Z,6.17
2022-11-04T03:50:19.404Z,6.70
2022-11-04T03:55:17.879Z,4.77
2022-11-04T04:00:18.779Z,5.73
2022-11-04T04:05:22.825Z,4.43
2022-11-04T04:10:42.744Z,3.97
2022-11-04T04:15:46.096Z,7.30
2022-11-04T04:20:48.127Z,2.93
2022-11-04T04:26:12.047Z,3.30
2022-11-04T04:31:35.200Z,8.03
2022-11-04T04:36:40.664Z,4.80
2022-11-04T04:41:56.148Z,3.80
2022-11-04T04:46:57.362Z,3.87
2022-11-04T04:51:55.595Z,3.60
2022-11-04T04:56:53.712Z,4.13
2022-11-04T05:01:52.103Z,4.13
2022-11-04T05:06:51.788Z,2.53
2022-11-04T05:11:50.000Z,4.23
2022-11-04T05:16:48.185Z,2.83
2022-11-04T05:21:46.365Z,5.33
2022-11-04T05:26:46.028Z,3.43
2022-11-04T05:31:44.227Z,2.97
2022-11-04T05:36:42.688Z,3.87
2022-11-04T05:41:40.956Z,4.10
2022-11-04T05:46:40.471Z,2.23
2022-11-04T05:51:39.188Z,2.47
2022-11-04T05:56:37.456Z,2.17
2022-11-04T06:01:37.285Z,4.50
2022-11-04T06:06:38.903Z,3.20
2022-11-04T06:11:38.023Z,2.60
2022-11-04T06:16:36.164Z,2.40
2022-11-04T06:21:36.186Z,2.10
2022-11-04T06:26:34.385Z,2.27
2022-11-04T06:31:32.752Z,2.20
2022-11-04T06:36:30.984Z,2.10
2022-11-04T06:41:30.563Z,2.83
2022-11-04T06:46:32.645Z,2.50
2022-11-04T06:51:30.986Z,2.03
2022-11-04T06:56:30.525Z,4.20
2022-11-04T07:01:32.121Z,3.30
2022-11-04T07:06:30.702Z,2.60
2022-11-04T07:11:32.532Z,2.57
2022-11-04T07:16:30.735Z,3.40
2022-11-04T07:21:28.948Z,2.73
2022-11-04T07:26:27.142Z,2.40
2022-11-04T07:31:26.664Z,2.27
2022-11-04T07:36:24.878Z,2.97
2022-11-04T07:41:23.109Z,5.87
2022-11-04T07:46:22.144Z,2.67
2022-11-04T07:51:22.499Z,2.47
2022-11-04T07:56:20.712Z,3.73
2022-11-04T08:01:21.302Z,4.40
2022-11-04T08:06:21.970Z,3.13
2022-11-04T08:11:23.377Z,2.37
2022-11-04T08:16:24.026Z,2.50
2022-11-04T08:21:23.554Z,2.60
2022-11-04T08:26:23.396Z,4.87
2022-11-04T08:31:24.228Z,3.07
2022-11-04T08:36:25.913Z,3.13
2022-11-04T08:41:26.378Z,4.43
2022-11-04T08:46:24.649Z,3.47
2022-11-04T08:51:26.738Z,2.60
2022-11-04T08:56:27.156Z,3.00
2022-11-04T09:01:28.908Z,2.30
2022-11-04T09:06:34.147Z,2.20
2022-11-04T09:11:33.768Z,2.33
2022-11-04T09:16:33.457Z,2.87
2022-11-04T09:21:33.255Z,2.13
2022-11-04T09:26:31.536Z,3.37
2022-11-04T09:31:31.713Z,2.77
2022-11-04T09:36:29.917Z,2.40
2022-11-04T09:42:07.258Z,5.93
2022-11-04T09:47:10.164Z,2.17
2022-11-04T09:52:17.148Z,3.60
2022-11-04T09:57:19.322Z,3.80
2022-11-04T10:02:30.634Z,2.60
2022-11-04T10:07:40.962Z,2.90
2022-11-04T10:13:06.461Z,2.70
2022-11-04T10:18:21.792Z,4.47
2022-11-04T10:23:23.647Z,2.77
2022-11-04T10:28:26.050Z,2.67
2022-11-04T10:33:32.296Z,3.20
2022-11-04T10:38:37.525Z,3.20
2022-11-04T10:43:38.827Z,6.20
2022-11-04T10:48:45.083Z,3.10
2022-11-04T10:53:43.370Z,4.13
2022-11-04T10:58:46.222Z,4.63
2022-11-04T11:03:45.766Z,2.57
2022-11-04T11:08:45.204Z,2.93
2022-11-04T11:13:45.507Z,1.87
2022-11-04T11:18:45.033Z,2.37
2022-11-04T11:23:47.157Z,3.43
2022-11-04T11:28:57.398Z,2.80
2022-11-04T11:34:01.716Z,2.00
2022-11-04T11:39:05.594Z,2.23
2022-11-04T11:44:08.500Z,3.47
2022-11-04T11:49:23.799Z,1.80
2022-11-04T11:54:27.422Z,2.03
2022-11-04T12:10:49.161Z,2.60
2022-11-04T12:15:56.622Z,2.50
2022-11-04T12:21:04.171Z,1.60
2022-11-04T12:26:13.684Z,1.30
2022-11-04T12:31:23.512Z,1.60
2022-11-04T12:36:44.309Z,1.67
2022-11-04T12:47:25.806Z,2.63
2022-11-04T12:52:45.732Z,2.00
2022-11-04T12:57:50.579Z,1.50
2022-11-04T13:02:53.545Z,1.17
2022-11-04T13:07:58.772Z,1.67
2022-11-04T13:13:01.037Z,1.63
2022-11-04T13:18:02.171Z,1.43
2022-11-04T13:23:06.848Z,1.50
2022-11-04T13:28:05.620Z,1.40
2022-11-04T13:33:14.471Z,1.50
2022-11-04T13:38:17.832Z,3.03
2022-11-04T13:43:39.707Z,1.40
2022-11-04T13:48:40.994Z,1.70
2022-11-04T13:53:46.639Z,2.10
2022-11-04T13:58:53.548Z,2.67
2022-11-04T14:03:54.347Z,3.60
2022-11-04T14:09:33.766Z,1.50
2022-11-04T14:14:32.024Z,1.50
2022-11-04T14:20:01.190Z,2.00
2022-11-04T14:25:02.590Z,1.70
2022-11-04T14:30:01.240Z,3.10
2022-11-04T14:35:03.410Z,2.60
2022-11-04T14:40:05.498Z,1.50
2022-11-04T14:45:03.902Z,2.07
2022-11-04T14:50:05.515Z,1.53
2022-11-04T14:55:08.987Z,2.60
2022-11-04T15:00:34.977Z,2.50
2022-11-04T15:05:36.372Z,8.13
2022-11-04T15:10:35.851Z,1.70
2022-11-04T15:15:38.355Z,1.40
2022-11-04T15:20:42.507Z,1.63
2022-11-04T15:25:47.726Z,1.90
2022-11-04T15:31:02.368Z,1.93
2022-11-04T15:36:00.986Z,2.97
2022-11-04T15:41:21.945Z,3.47
2022-11-04T15:46:21.375Z,3.70
2022-11-04T15:51:21.718Z,3.17
2022-11-04T15:56:24.584Z,2.63
2022-11-04T16:01:23.682Z,1.70
2022-11-04T16:13:25.771Z,2.00
2022-11-04T16:18:26.464Z,2.10
2022-11-04T16:23:28.011Z,1.93
2022-11-04T16:28:30.585Z,2.57
2022-11-04T16:33:28.760Z,5.90
2022-11-04T16:38:26.921Z,4.27
2022-11-04T16:43:25.405Z,4.60
2022-11-04T16:48:24.918Z,3.40
2022-11-04T16:53:23.121Z,3.90
2022-11-04T16:58:21.858Z,9.30
2022-11-04T17:03:22.249Z,3.60
2022-11-04T17:08:21.902Z,4.23
2022-11-04T17:13:20.118Z,7.73
2022-11-04T17:18:19.910Z,9.00
2022-11-04T17:23:18.449Z,6.73
2022-11-04T17:28:18.144Z,11.43
2022-11-04T17:33:22.502Z,9.83
2022-11-04T17:38:20.781Z,14.40
2022-11-04T17:43:37.729Z,11.57
2022-11-04T17:48:35.871Z,7.83
2022-11-04T17:53:34.018Z,14.13
2022-11-04T17:58:33.547Z,7.17
2022-11-04T18:03:32.062Z,6.33
2022-11-04T18:08:30.272Z,4.20
2022-11-04T18:13:28.574Z,7.77
2022-11-04T18:18:28.118Z,12.70
2022-11-04T18:23:26.285Z,8.97
2022-11-04T18:28:24.688Z,11.03
2022-11-04T18:33:22.849Z,11.00
2022-11-04T18:38:22.705Z,7.17
2022-11-04T18:43:21.171Z,9.17
2022-11-04T18:48:19.321Z,7.80
2022-11-04T18:53:22.791Z,9.47
2022-11-04T18:58:25.425Z,10.23
2022-11-04T19:03:24.077Z,12.73
2022-11-04T19:08:22.283Z,18.50
2022-11-04T19:13:20.613Z,20.93
2022-11-04T19:18:20.468Z,18.83
2022-11-04T19:23:18.667Z,19.80
2022-11-04T19:28:37.164Z,17.00
2022-11-04T19:33:36.709Z,15.70
2022-11-04T19:38:34.937Z,18.43
2022-11-04T19:43:33.145Z,14.20
2022-11-04T19:48:31.755Z,12.80
2022-11-04T19:53:31.460Z,22.53
2022-11-04T19:58:29.665Z,13.83
2022-11-04T20:03:27.826Z,13.13
2022-11-04T20:08:26.162Z,11.73
2022-11-04T20:13:51.452Z,15.43
2022-11-04T20:19:51.508Z,13.37
2022-11-04T20:24:49.701Z,8.97
2022-11-04T20:29:49.199Z,11.03
2022-11-04T20:34:48.538Z,10.13
2022-11-04T20:39:46.837Z,9.03
2022-11-04T20:44:45.040Z,5.10
2022-11-04T20:49:45.131Z,5.50
2022-11-04T20:54:43.316Z,8.07
2022-11-04T20:59:41.482Z,10.67
2022-11-04T21:04:40.398Z,12.37
2022-11-04T21:09:39.940Z,10.67
2022-11-04T21:14:38.225Z,7.70
2022-11-04T21:19:36.470Z,6.33
2022-11-04T21:24:39.151Z,8.47
2022-11-04T21:29:38.967Z,4.60
2022-11-04T21:34:37.195Z,6.10
2022-11-04T21:39:35.388Z,3.83
2022-11-04T21:44:33.561Z,5.23
2022-11-04T21:49:33.029Z,6.00
2022-11-04T21:54:31.519Z,5.47
2022-11-04T21:59:29.648Z,5.53
2022-11-04T22:04:27.860Z,5.13
2022-11-04T22:09:27.353Z,15.77
2022-11-04T22:14:25.466Z,4.73
2022-11-04T22:19:23.603Z,3.83
2022-11-04T22:25:03.114Z,4.50
2022-11-04T22:30:01.522Z,6.80
2022-11-04T22:34:59.877Z,6.87
2022-11-04T22:39:59.381Z,2.50
2022-11-04T22:44:57.562Z,2.83
2022-11-04T22:49:56.120Z,2.53
2022-11-04T22:54:54.248Z,5.83
2022-11-04T22:59:53.837Z,3.30
2022-11-04T23:04:51.970Z,2.47
2022-11-04T23:10:07.678Z,4.17
2022-11-04T23:15:25.668Z,2.50
2022-11-04T23:20:27.655Z,2.20
2022-11-04T23:25:26.898Z,3.17
2022-11-04T23:30:28.521Z,2.80
2022-11-04T23:35:45.885Z,8.20
2022-11-04T23:41:04.543Z,11.23
2022-11-04T23:46:42.280Z,4.50
2022-11-04T23:51:59.081Z,3.30
2022-11-04T23:57:14.738Z,4.57
